Abney, South Carolina
Current Conditions -  °F | °C
As of 3:55 AM on Saturday 01 Nov 2014 (Local Time) from KCDN Reporting Station
Light Rain Light Rain  
Wind Chill: 46°   Ceiling: 3600
Heat Index: 48°   Visibility: 10mi
Dew Point: 46°   Wind: 5mph
Humidity: 93%   Direction: 340°NNW
Pressure: 29.7"   Gusts: NA
Location:  34.5438°N, 80.5351°W
Report Text: KCDN 010755Z AUTO 34004KT 10SM -RA OVC036 09/08 A2970 RMK AO2 TSNO
Loading
Personal Weather Stations






























Interactive Weather Map
Tropical Storm Tracking
New forecast layout! Learn more

10-Day Weather Forecast

Advertisements
Track Severe Weather on mobile